Terminal Aerodrome Forecast
Issued by NWS

Home | Current Version | Previous Version | Text Only | Print | Product List | Glossary On
Versions: 1 2 3 4 5 6 7 8 9 10 11 12 13 14 15 16 17
000
FTUS45 KRIW 212300
TAFLND
TAF
KLND 212339Z 2200/2224 27010KT P6SM VCSH SCT070 BKN100
      WS020/29040KT
     FM220300 29011KT P6SM VCSH BKN070
     FM220800 29014G24KT P6SM SCT070
     FM222000 33010KT P6SM VCSH SCT050 BKN100=

USA.gov is the U.S. government's official web portal to all federal, state and local government web resources and services.